Time;durP1;ratioP1;P1;durP2;ratioP2;P2;SDS_P1;SDS_P2;PMS_P1;PMS_P2;Temp;Humidity;BMP_temperature;BMP_pressure;BME280_temperature;BME280_humidity;BME280_pressure;Samples;Min_cycle;Max_cycle;Signal;HPM_P1;HPM_P2
2021/12/03 00:00:45;;;;;;;35.25;23.52;;;;;;;1.46;82.80;99317.22;5055649;28;20031;-63
2021/12/03 00:03:11;;;;;;;32.17;20.13;;;;;;;1.44;82.77;99313.91;5053910;28;20033;-63
2021/12/03 00:05:38;;;;;;;34.42;20.83;;;;;;;1.50;82.77;99313.91;5057475;28;20033;-64
2021/12/03 00:08:04;;;;;;;40.50;24.15;;;;;;;1.11;84.46;99302.31;5059146;28;20404;-65
2021/12/03 00:10:29;;;;;;;42.20;27.08;;;;;;;0.84;85.10;99299.72;5059010;28;20971;-65
2021/12/03 00:12:57;;;;;;;48.85;30.63;;;;;;;0.75;85.58;99291.09;5059104;28;20029;-65
2021/12/03 00:15:25;;;;;;;45.67;28.65;;;;;;;0.83;86.17;99287.34;5058485;28;20029;-63
2021/12/03 00:17:51;;;;;;;52.55;33.10;;;;;;;0.80;86.57;99289.41;5059971;28;20776;-64
2021/12/03 00:20:17;;;;;;;52.20;31.63;;;;;;;0.78;86.53;99283.44;5058632;28;20111;-64
2021/12/03 00:22:46;;;;;;;44.17;28.67;;;;;;;0.97;85.86;99288.94;5059345;28;20048;-64
2021/12/03 00:25:12;;;;;;;44.20;28.63;;;;;;;1.14;85.84;99293.84;5058682;28;20043;-63
2021/12/03 00:27:39;;;;;;;46.67;26.85;;;;;;;1.38;84.07;99286.06;5058687;28;20016;-64
2021/12/03 00:30:08;;;;;;;42.38;23.95;;;;;;;1.50;83.58;99302.31;5056639;28;20083;-64
2021/12/03 00:32:33;;;;;;;39.00;26.02;;;;;;;1.21;84.61;99299.97;5058582;28;20033;-64
2021/12/03 00:34:58;;;;;;;37.15;25.27;;;;;;;1.04;85.72;99303.16;5060278;28;20626;-63
2021/12/03 00:37:24;;;;;;;33.63;22.80;;;;;;;0.96;85.12;99298.00;5058064;28;20024;-63
2021/12/03 00:39:50;;;;;;;46.78;25.98;;;;;;;1.21;84.26;99302.66;5058737;28;20119;-64
2021/12/03 00:42:17;;;;;;;38.40;23.48;;;;;;;1.00;84.43;99293.88;5058483;28;20039;-64
2021/12/03 00:44:45;;;;;;;38.95;22.48;;;;;;;0.68;86.42;99299.16;5061508;28;20042;-64
2021/12/03 00:47:11;;;;;;;39.58;22.60;;;;;;;1.03;85.46;99298.00;5063072;28;20032;-64
2021/12/03 00:49:36;;;;;;;36.65;24.33;;;;;;;0.94;85.24;99297.41;5062509;28;20412;-65
2021/12/03 00:52:02;;;;;;;33.58;19.95;;;;;;;1.19;84.95;99296.69;5063237;28;20032;-64
2021/12/03 00:54:27;;;;;;;34.70;21.45;;;;;;;1.35;83.94;99305.28;5061282;28;20029;-63
2021/12/03 00:56:53;;;;;;;32.35;21.52;;;;;;;1.20;84.50;99298.31;5062918;28;20116;-63
2021/12/03 00:59:18;;;;;;;43.55;25.73;;;;;;;1.11;84.65;99299.63;5061198;28;20043;-64
2021/12/03 01:01:43;;;;;;;38.20;23.13;;;;;;;1.08;84.41;99290.13;5062113;28;20577;-64
2021/12/03 01:04:08;;;;;;;39.13;22.05;;;;;;;1.36;83.83;99293.50;5062196;28;20028;-64
2021/12/03 01:06:34;;;;;;;40.53;23.65;;;;;;;1.42;83.40;99300.72;5061835;28;20028;-64
2021/12/03 01:08:59;;;;;;;39.88;22.30;;;;;;;1.18;83.49;99300.41;5062777;28;20028;-64
2021/12/03 01:11:24;;;;;;;34.00;19.65;;;;;;;2.01;80.71;99304.22;5061647;28;20030;-64
2021/12/03 01:13:50;;;;;;;33.00;19.08;;;;;;;2.59;79.15;99318.41;5061709;28;20439;-64
2021/12/03 01:16:16;;;;;;;28.65;17.17;;;;;;;2.55;79.11;99311.81;5061134;28;20029;-64
2021/12/03 01:18:45;;;;;;;32.50;18.08;;;;;;;2.86;77.29;99320.00;5062672;28;20027;-67
2021/12/03 01:21:10;;;;;;;30.77;17.52;;;;;;;3.06;76.25;99317.06;5061208;28;20601;-67
2021/12/03 01:23:36;;;;;;;33.45;18.20;;;;;;;2.88;77.47;99324.13;5062109;28;20045;-64
2021/12/03 01:26:01;;;;;;;29.25;17.80;;;;;;;3.35;75.37;99330.81;5062182;28;20052;-64
2021/12/03 01:28:27;;;;;;;29.20;17.35;;;;;;;3.00;76.65;99344.91;5060289;28;20036;-64
2021/12/03 01:30:54;;;;;;;29.55;17.90;;;;;;;2.68;77.52;99353.94;5061294;28;20020;-64
2021/12/03 01:33:19;;;;;;;46.55;24.15;;;;;;;2.50;79.31;99355.53;5060118;28;20490;-64
2021/12/03 01:35:45;;;;;;;56.00;33.30;;;;;;;2.35;78.79;99353.19;5061265;28;20029;-64
2021/12/03 01:38:10;;;;;;;58.50;32.53;;;;;;;2.72;77.08;99348.94;5060455;28;20029;-62
2021/12/03 01:40:36;;;;;;;50.20;31.50;;;;;;;2.64;77.56;99347.34;5061231;28;20024;-64
2021/12/03 01:43:05;;;;;;;56.63;31.48;;;;;;;2.10;79.52;99360.22;5060816;28;20076;-66
2021/12/03 01:45:33;;;;;;;45.53;31.58;;;;;;;2.36;78.47;99362.91;5060203;28;20119;-64
2021/12/03 01:47:59;;;;;;;50.80;32.50;;;;;;;1.89;79.88;99350.66;5060856;28;20032;-64
2021/12/03 01:50:33;;;;;;;55.30;31.20;;;;;;;1.32;81.97;99348.69;5059452;28;20032;-64
2021/12/03 01:52:59;;;;;;;54.05;33.78;;;;;;;1.62;80.98;99342.75;5060368;28;20056;-65
2021/12/03 01:55:24;;;;;;;58.88;37.80;;;;;;;1.60;80.86;99340.28;5059089;28;20171;-64
2021/12/03 01:57:50;;;;;;;66.40;41.88;;;;;;;1.87;80.63;99344.69;5059676;28;20028;-64
2021/12/03 02:00:21;;;;;;;64.60;40.33;;;;;;;2.06;80.15;99342.88;5059366;28;20039;-64
2021/12/03 02:02:48;;;;;;;71.30;44.40;;;;;;;2.11;79.46;99355.69;5059363;28;20123;-64
2021/12/03 02:05:13;;;;;;;71.68;41.72;;;;;;;1.67;81.49;99356.34;5060339;28;20025;-65
2021/12/03 02:07:39;;;;;;;75.43;45.35;;;;;;;1.68;81.05;99357.19;5058783;28;20045;-64
2021/12/03 02:10:05;;;;;;;53.78;33.85;;;;;;;1.55;81.94;99363.44;5060363;28;20143;-64
2021/12/03 02:12:31;;;;;;;55.42;34.92;;;;;;;1.08;83.87;99359.13;5059658;28;20471;-64
2021/12/03 02:14:56;;;;;;;52.20;31.52;;;;;;;1.46;83.07;99358.34;5059799;28;20032;-64
2021/12/03 02:17:21;;;;;;;56.17;34.53;;;;;;;1.48;82.10;99352.75;5059992;28;20535;-64
2021/12/03 02:19:47;;;;;;;47.42;30.40;;;;;;;1.51;81.80;99349.63;5060315;28;20420;-64
2021/12/03 02:22:13;;;;;;;52.72;30.05;;;;;;;1.73;81.17;99350.13;5059944;28;20028;-63
2021/12/03 02:24:38;;;;;;;47.65;25.92;;;;;;;1.78;81.96;99343.28;5058969;28;20023;-63
2021/12/03 02:27:04;;;;;;;43.67;26.88;;;;;;;1.69;nan;99335.47;5060413;28;20028;-63
2021/12/03 02:29:30;;;;;;;47.63;28.73;;;;;;;1.57;82.40;99334.50;5058860;28;20020;-64
2021/12/03 02:31:55;;;;;;;44.67;27.15;;;;;;;1.37;82.91;99336.28;5060618;28;20031;-63
2021/12/03 02:34:21;;;;;;;51.92;26.40;;;;;;;1.72;82.04;99335.06;5059013;28;20363;-64
2021/12/03 02:36:46;;;;;;;52.17;29.13;;;;;;;1.83;82.37;99338.09;5059645;28;20036;-64
2021/12/03 02:39:11;;;;;;;49.22;27.75;;;;;;;2.34;79.39;99335.41;5060662;28;20720;-64
2021/12/03 02:41:37;;;;;;;41.78;24.02;;;;;;;3.15;76.65;99334.56;5060019;28;20091;-64
2021/12/03 02:44:03;;;;;;;44.22;25.92;;;;;;;2.31;78.69;99338.53;5059493;28;20067;-64
2021/12/03 02:46:28;;;;;;;43.30;26.33;;;;;;;1.95;80.60;99339.00;5059827;28;20037;-64
2021/12/03 02:48:53;;;;;;;52.22;28.17;;;;;;;2.16;79.92;99337.00;5060610;28;20067;-65
2021/12/03 02:51:19;;;;;;;43.67;28.30;;;;;;;1.96;80.12;99331.78;5059687;28;20047;-65
2021/12/03 02:53:44;;;;;;;45.38;26.52;;;;;;;2.14;80.35;99333.69;5060258;28;20037;-65
2021/12/03 02:56:10;;;;;;;50.80;28.83;;;;;;;2.03;80.81;99340.63;5059851;28;20036;-62
2021/12/03 02:58:35;;;;;;;43.58;25.55;;;;;;;2.86;78.85;99328.06;5059270;28;20461;-64
2021/12/03 03:01:03;;;;;;;40.75;27.58;;;;;;;2.59;78.86;99334.56;5060315;28;20028;-64
2021/12/03 03:03:29;;;;;;;44.25;28.30;;;;;;;1.67;82.28;99337.53;5059796;28;20033;-64
2021/12/03 03:05:57;;;;;;;48.38;30.90;;;;;;;1.78;82.23;99336.03;5059182;28;20028;-64
2021/12/03 03:08:23;;;;;;;51.95;30.10;;;;;;;2.13;81.07;99333.94;5059129;28;20077;-64
2021/12/03 03:10:50;;;;;;;40.92;26.83;;;;;;;2.03;81.52;99332.56;5060510;28;20484;-64
2021/12/03 03:13:15;;;;;;;55.85;28.98;;;;;;;2.55;80.17;99341.41;5040791;28;20031;-64
2021/12/03 03:15:40;;;;;;;48.88;28.85;;;;;;;2.27;80.26;99345.41;5060238;28;20489;-63
2021/12/03 03:18:15;;;;;;;49.40;29.92;;;;;;;1.64;82.05;99346.06;5059559;28;20375;-63
2021/12/03 03:20:42;;;;;;;70.05;31.75;;;;;;;1.82;83.03;99350.69;5059063;28;20024;-64
2021/12/03 03:23:08;;;;;;;52.42;28.85;;;;;;;1.53;83.83;99346.75;5059703;28;20090;-64
2021/12/03 03:29:05;;;;;;;54.13;32.00;;;;;;;1.44;84.51;99348.84;5059187;28;20160;-63
2021/12/03 03:31:35;;;;;;;53.80;29.75;;;;;;;1.40;85.12;99345.78;5059494;28;20041;-64
2021/12/03 03:34:02;;;;;;;60.47;28.50;;;;;;;2.12;81.75;99343.84;5058713;28;20464;-64
2021/12/03 03:36:30;;;;;;;52.05;30.10;;;;;;;1.66;83.02;99352.03;5059836;28;20383;-63
2021/12/03 03:38:55;;;;;;;47.38;29.42;;;;;;;2.20;81.35;99351.66;5059129;28;20029;-63
2021/12/03 03:41:22;;;;;;;58.17;30.58;;;;;;;1.58;83.64;99352.28;5059927;28;20389;-63
2021/12/03 03:43:47;;;;;;;54.42;29.05;;;;;;;1.66;83.13;99343.97;5059465;28;20021;-65
2021/12/03 03:46:12;;;;;;;48.17;29.88;;;;;;;1.30;85.00;99350.78;5059317;28;20478;-63
2021/12/03 03:48:38;;;;;;;53.28;27.83;;;;;;;1.55;83.72;99341.97;5058848;28;20128;-64
2021/12/03 03:51:03;;;;;;;45.85;25.75;;;;;;;1.91;82.69;99345.88;5058533;28;20134;-64
2021/12/03 03:53:28;;;;;;;54.30;27.13;;;;;;;2.07;82.71;99339.16;5060325;28;20035;-64
2021/12/03 03:55:54;;;;;;;67.70;31.25;;;;;;;1.80;83.31;99343.88;5058788;28;20037;-63
2021/12/03 03:58:20;;;;;;;51.10;30.42;;;;;;;2.16;81.99;99342.38;5059253;28;20033;-63
2021/12/03 04:00:45;;;;;;;59.97;28.45;;;;;;;1.85;82.29;99346.75;5058868;28;20091;-63
2021/12/03 04:03:12;;;;;;;61.00;27.58;;;;;;;1.87;83.27;99344.69;5059411;28;20029;-64
2021/12/03 04:05:38;;;;;;;54.10;28.10;;;;;;;1.82;82.88;99337.25;5059152;28;20032;-64
2021/12/03 04:08:04;;;;;;;44.10;27.30;;;;;;;1.70;83.27;99331.75;5059082;28;20395;-64
2021/12/03 04:10:30;;;;;;;50.20;26.67;;;;;;;1.92;82.84;99326.00;5060035;28;20621;-64
2021/12/03 04:12:55;;;;;;;48.63;24.05;;;;;;;2.02;81.91;99314.75;5058418;28;20037;-64
2021/12/03 04:15:21;;;;;;;43.05;23.75;;;;;;;1.97;82.16;99314.63;5059900;28;20058;-63
2021/12/03 04:17:47;;;;;;;50.25;26.35;;;;;;;2.30;81.18;99299.22;5060299;28;20029;-64
2021/12/03 04:20:15;;;;;;;56.10;28.02;;;;;;;1.47;83.49;99298.19;5062742;28;20031;-64
2021/12/03 04:22:42;;;;;;;50.55;26.08;;;;;;;1.78;83.22;99302.94;5063709;28;20376;-63
2021/12/03 04:25:10;;;;;;;49.45;26.48;;;;;;;1.84;83.39;99296.72;5063163;28;20078;-63
2021/12/03 04:27:36;;;;;;;42.78;23.27;;;;;;;1.65;84.01;99298.50;5063424;28;20025;-64
2021/12/03 04:30:04;;;;;;;45.80;24.27;;;;;;;1.98;82.87;99292.03;5061591;28;20491;-65
2021/12/03 04:32:30;;;;;;;45.65;25.13;;;;;;;1.56;84.61;99297.94;5062253;28;20475;-63
2021/12/03 04:34:55;;;;;;;44.78;25.15;;;;;;;1.40;84.39;99287.47;5043434;28;20089;-63
2021/12/03 04:37:21;;;;;;;42.75;22.90;;;;;;;1.89;83.31;99299.56;5063241;28;20021;-63
2021/12/03 04:39:46;;;;;;;44.38;23.08;;;;;;;1.67;83.49;99297.22;5062969;28;20364;-64
2021/12/03 04:42:11;;;;;;;41.85;20.77;;;;;;;1.92;81.98;99298.28;5061518;28;20024;-63
2021/12/03 04:44:37;;;;;;;35.88;21.48;;;;;;;2.03;82.08;99294.09;5062835;28;20089;-64
2021/12/03 04:47:03;;;;;;;42.38;22.08;;;;;;;2.39;80.87;99287.13;5061920;28;20298;-64
2021/12/03 04:49:29;;;;;;;43.33;22.73;;;;;;;2.17;81.27;99284.88;5062779;28;20036;-64
2021/12/03 04:51:55;;;;;;;38.03;21.77;;;;;;;2.21;81.18;99286.06;5043704;28;20024;-63
2021/12/03 04:54:20;;;;;;;33.75;20.38;;;;;;;1.93;82.69;99290.00;5063312;28;20498;-64
2021/12/03 04:56:46;;;;;;;36.20;19.60;;;;;;;2.25;81.29;99285.63;5061768;28;20082;-63
2021/12/03 04:59:11;;;;;;;44.28;22.65;;;;;;;2.04;82.64;99275.03;5061889;28;20025;-63
2021/12/03 05:01:38;;;;;;;30.80;16.92;;;;;;;2.20;81.22;99272.81;5062000;28;20031;-64
2021/12/03 05:04:04;;;;;;;34.72;19.73;;;;;;;1.97;81.72;99275.06;5061231;28;20024;-64
2021/12/03 05:06:31;;;;;;;33.22;18.60;;;;;;;2.07;82.08;99284.53;5062846;28;20039;-64
2021/12/03 05:08:57;;;;;;;36.97;18.55;;;;;;;2.36;80.53;99282.19;5061528;28;20064;-63
2021/12/03 05:14:25;;;;;;;39.75;18.55;;;;;;;1.96;82.28;99292.28;5056605;28;20106;-64
2021/12/03 05:16:50;;;;;;;35.47;18.02;;;;;;;2.00;83.67;99295.34;5061268;28;20020;-64
2021/12/03 05:19:17;;;;;;;39.70;20.17;;;;;;;2.38;81.84;99290.84;5062669;28;20078;-63
2021/12/03 05:21:43;;;;;;;36.42;19.42;;;;;;;2.66;80.79;99292.25;5061581;28;20028;-63
2021/12/03 05:24:09;;;;;;;47.05;22.85;;;;;;;1.92;82.97;99296.44;5062064;28;20053;-63
2021/12/03 05:26:36;;;;;;;32.90;19.25;;;;;;;2.78;80.38;99288.81;5061255;28;20047;-64
2021/12/03 05:29:02;;;;;;;38.28;21.33;;;;;;;2.06;81.21;99288.25;5060455;28;20034;-65
2021/12/03 05:31:28;;;;;;;45.47;23.90;;;;;;;1.87;83.22;99290.91;5060974;28;20115;-64
2021/12/03 05:33:53;;;;;;;39.53;20.73;;;;;;;2.00;82.32;99300.72;5061371;28;20105;-64
2021/12/03 05:36:18;;;;;;;47.72;20.30;;;;;;;1.86;83.25;99300.81;5062438;28;20017;-64
2021/12/03 05:38:43;;;;;;;48.05;22.15;;;;;;;2.12;83.05;99300.00;5060917;28;20025;-64
2021/12/03 05:41:09;;;;;;;38.90;22.63;;;;;;;2.29;82.06;99293.03;5061987;28;20486;-64
2021/12/03 05:43:34;;;;;;;44.95;24.35;;;;;;;2.04;82.81;99299.25;5060878;28;20387;-64
2021/12/03 05:45:59;;;;;;;39.67;21.30;;;;;;;1.95;82.98;99309.44;5061788;28;20094;-64
2021/12/03 05:48:25;;;;;;;43.75;23.45;;;;;;;2.21;82.03;99304.06;5060808;28;20033;-62
2021/12/03 05:50:51;;;;;;;41.17;20.67;;;;;;;2.18;81.79;99299.94;5061482;28;20032;-63
2021/12/03 05:53:16;;;;;;;38.03;20.38;;;;;;;2.70;80.37;99297.19;5061999;28;20113;-63
2021/12/03 05:55:42;;;;;;;35.15;20.35;;;;;;;2.70;80.47;99294.47;5061060;28;20024;-64
2021/12/03 05:58:08;;;;;;;30.67;20.15;;;;;;;2.39;80.52;99302.44;5061691;28;20033;-64
2021/12/03 06:00:37;;;;;;;37.50;21.17;;;;;;;2.10;81.57;99306.44;5059990;28;20074;-64
2021/12/03 06:03:03;;;;;;;37.35;19.92;;;;;;;1.81;82.88;99314.09;5061838;28;20103;-64
2021/12/03 06:05:29;;;;;;;41.42;20.92;;;;;;;1.88;82.70;99302.47;5060885;28;20025;-63
2021/12/03 06:07:56;;;;;;;47.65;21.83;;;;;;;1.90;83.99;99298.53;5060925;28;20039;-64
2021/12/03 06:10:21;;;;;;;41.08;22.40;;;;;;;1.98;82.92;99297.41;5061453;28;20182;-63
2021/12/03 06:12:47;;;;;;;37.38;19.20;;;;;;;2.32;82.44;99291.75;5060619;28;20044;-64
2021/12/03 06:15:13;;;;;;;33.30;18.65;;;;;;;1.87;83.63;99301.66;5061198;28;20036;-64
2021/12/03 06:17:39;;;;;;;38.30;20.90;;;;;;;1.67;84.36;99297.22;5060731;28;20040;-63
2021/12/03 06:20:06;;;;;;;37.67;16.73;;;;;;;2.16;82.46;99296.66;5060789;28;20468;-63
2021/12/03 06:22:32;;;;;;;32.08;16.65;;;;;;;2.18;81.76;99291.88;5059836;28;20479;-63
2021/12/03 06:24:57;;;;;;;34.08;17.00;;;;;;;2.30;81.29;99283.06;5061068;28;20164;-63
2021/12/03 06:27:24;;;;;;;30.88;16.55;;;;;;;1.88;82.61;99289.84;5059455;28;20028;-64
2021/12/03 06:29:51;;;;;;;30.85;17.35;;;;;;;2.28;82.57;99295.94;5059693;28;20025;-64
2021/12/03 06:32:16;;;;;;;30.90;17.25;;;;;;;1.91;82.89;99297.47;5060654;28;20028;-63
2021/12/03 06:34:41;;;;;;;28.63;17.40;;;;;;;2.35;81.99;99285.09;5059477;28;20047;-64
2021/12/03 06:37:07;;;;;;;29.65;15.50;;;;;;;2.39;82.05;99297.91;5054532;28;20478;-64
2021/12/03 06:39:32;;;;;;;34.03;18.60;;;;;;;2.47;82.04;99298.66;5060353;28;20025;-63
2021/12/03 06:41:58;;;;;;;27.35;14.95;;;;;;;2.36;81.19;99303.72;5059481;28;20038;-64
2021/12/03 06:44:25;;;;;;;38.42;16.92;;;;;;;1.87;83.32;99296.28;5059246;28;20519;-63
2021/12/03 06:46:52;;;;;;;42.90;18.40;;;;;;;2.68;81.13;99306.28;5060541;28;20498;-64
2021/12/03 06:49:17;;;;;;;26.65;15.45;;;;;;;3.11;79.87;99309.13;5059967;28;20075;-64
2021/12/03 06:51:44;;;;;;;29.70;16.15;;;;;;;2.43;81.75;99301.78;5059339;28;20563;-62
2021/12/03 06:54:11;;;;;;;35.38;15.55;;;;;;;2.94;79.40;99291.94;5060659;28;20589;-64
2021/12/03 06:56:51;;;;;;;41.20;21.02;;;;;;;2.47;81.34;99306.72;5058793;28;20552;-64
2021/12/03 06:59:17;;;;;;;33.25;17.38;;;;;;;2.56;81.51;99297.31;5060038;28;20024;-63
2021/12/03 07:01:43;;;;;;;34.60;18.27;;;;;;;2.62;80.95;99291.06;5059326;28;20028;-64
2021/12/03 07:04:09;;;;;;;32.03;17.63;;;;;;;2.56;81.93;99297.31;5059918;28;20478;-63
2021/12/03 07:06:34;;;;;;;29.88;16.95;;;;;;;2.48;81.33;99287.69;5060741;28;20040;-63
2021/12/03 07:09:00;;;;;;;45.83;18.60;;;;;;;2.15;82.68;99289.63;5060509;28;20027;-62
2021/12/03 07:11:26;;;;;;;37.70;20.27;;;;;;;2.28;82.83;99296.75;5060445;28;20037;-64
2021/12/03 07:13:51;;;;;;;34.25;18.70;;;;;;;2.22;83.15;99276.94;5059043;28;20033;-64
2021/12/03 07:16:16;;;;;;;29.77;16.40;;;;;;;2.31;82.58;99290.09;5060824;28;20032;-63
2021/12/03 07:18:43;;;;;;;36.30;18.60;;;;;;;2.40;82.64;99288.75;5059762;28;20078;-63
2021/12/03 07:21:09;;;;;;;31.45;19.15;;;;;;;2.77;81.58;99292.53;5061358;28;20048;-64
2021/12/03 07:23:34;;;;;;;41.03;18.67;;;;;;;2.66;81.52;99281.47;5060088;28;20122;-64
2021/12/03 07:26:01;;;;;;;33.20;16.52;;;;;;;2.53;81.59;99290.50;5059489;28;20072;-63
2021/12/03 07:28:27;;;;;;;27.88;15.40;;;;;;;2.60;81.71;99289.63;5059581;28;20622;-66
2021/12/03 07:30:52;;;;;;;37.58;15.65;;;;;;;2.98;81.62;99287.75;5059263;28;20035;-68
2021/12/03 07:33:18;;;;;;;33.60;18.73;;;;;;;3.10;80.56;99279.72;5060654;28;20040;-64
2021/12/03 07:35:46;;;;;;;27.33;17.95;;;;;;;3.09;80.31;99278.88;5059875;28;20048;-64
2021/12/03 07:38:12;;;;;;;35.92;16.98;;;;;;;3.36;80.04;99289.31;5058920;28;20105;-63
2021/12/03 07:40:38;;;;;;;33.00;18.48;;;;;;;2.55;81.76;99284.91;5060340;28;20454;-64
2021/12/03 07:43:03;;;;;;;44.22;20.35;;;;;;;2.45;82.51;99280.88;5059396;28;20028;-63
2021/12/03 07:45:28;;;;;;;36.05;16.52;;;;;;;2.91;81.61;99283.25;5060435;28;20399;-64
2021/12/03 07:47:54;;;;;;;33.00;17.38;;;;;;;2.74;81.95;99276.84;5059564;28;20040;-63
2021/12/03 07:50:19;;;;;;;35.70;18.35;;;;;;;2.94;80.76;99286.53;5061257;28;21354;-62
2021/12/03 07:52:45;;;;;;;31.40;17.27;;;;;;;2.64;80.66;99278.19;5061633;28;20020;-63
2021/12/03 07:55:11;;;;;;;34.40;16.60;;;;;;;2.42;82.99;99285.88;5064898;28;20029;-64
2021/12/03 07:57:36;;;;;;;45.65;19.52;;;;;;;2.51;82.47;99289.09;5062367;28;20595;-64
2021/12/03 08:00:04;;;;;;;31.35;18.05;;;;;;;3.12;80.28;99283.00;5064567;28;20016;-63
2021/12/03 08:02:29;;;;;;;38.63;17.63;;;;;;;2.77;80.97;99281.75;5064328;28;20029;-64
2021/12/03 08:04:55;;;;;;;26.77;14.55;;;;;;;2.82;80.25;99287.31;5063884;28;20039;-63
2021/12/03 08:07:20;;;;;;;30.73;15.75;;;;;;;2.73;81.33;99294.84;5064450;28;20033;-63
2021/12/03 08:09:46;;;;;;;28.42;16.10;;;;;;;2.49;81.86;99293.88;5063296;28;20020;-63
2021/12/03 08:12:12;;;;;;;27.95;17.38;;;;;;;2.50;81.83;99282.88;5064145;28;20105;-64
2021/12/03 08:14:37;;;;;;;40.65;17.52;;;;;;;2.77;81.93;99282.59;5063179;28;20106;-64
2021/12/03 08:17:03;;;;;;;32.25;16.48;;;;;;;2.67;80.55;99274.22;5064135;28;20021;-64
2021/12/03 08:19:28;;;;;;;26.77;13.20;;;;;;;2.47;81.64;99285.19;5062957;28;20115;-63
2021/12/03 08:21:53;;;;;;;32.78;14.50;;;;;;;2.37;81.53;99294.59;5063437;28;20043;-64
2021/12/03 08:24:19;;;;;;;29.60;14.90;;;;;;;3.15;79.21;99280.66;5063718;28;20531;-64
2021/12/03 08:26:44;;;;;;;35.70;13.85;;;;;;;3.09;79.55;99286.97;5060829;28;20508;-63
2021/12/03 08:29:10;;;;;;;29.75;13.75;;;;;;;2.88;78.91;99283.72;5063773;28;20519;-63
2021/12/03 08:31:38;;;;;;;25.13;13.05;;;;;;;2.91;79.04;99298.56;5062518;28;20474;-63
2021/12/03 08:34:03;;;;;;;24.80;11.50;;;;;;;2.63;80.05;99290.00;5063984;28;20571;-63
2021/12/03 08:36:29;;;;;;;22.90;11.52;;;;;;;2.63;79.79;99283.78;5062941;28;20033;-63
2021/12/03 08:38:54;;;;;;;20.15;11.15;;;;;;;2.59;79.94;99290.66;5061072;28;20031;-62
2021/12/03 08:41:19;;;;;;;21.65;10.00;;;;;;;2.63;79.46;99298.06;5044771;28;20035;-62
2021/12/03 08:43:47;;;;;;;23.73;11.38;;;;;;;2.47;79.57;99301.34;5061216;28;20488;-63
2021/12/03 08:46:21;;;;;;;40.15;10.48;;;;;;;2.87;78.67;99289.31;5062230;28;20571;-63
2021/12/03 08:48:48;;;;;;;20.20;7.50;;;;;;;2.61;78.51;99293.94;5061103;28;20033;-64
2021/12/03 08:56:42;;;;;;;19.83;8.18;;;;;;;2.70;77.62;99289.09;5058148;28;20055;-64
2021/12/03 08:59:08;;;;;;;19.02;6.93;;;;;;;2.70;77.02;99281.03;5062893;28;20594;-64
2021/12/03 09:01:33;;;;;;;17.98;7.22;;;;;;;2.48;77.48;99282.31;5062585;28;20032;-63
2021/12/03 09:03:58;;;;;;;12.45;6.40;;;;;;;2.37;76.86;99291.91;5062611;28;20699;-63
2021/12/03 09:06:25;;;;;;;16.73;6.68;;;;;;;2.80;76.78;99284.03;5062447;28;20032;-63
2021/12/03 09:08:51;;;;;;;18.42;7.53;;;;;;;2.57;75.69;99274.72;5063021;28;20082;-63
2021/12/03 09:11:17;;;;;;;13.90;5.85;;;;;;;2.74;75.07;99266.91;5062532;28;20024;-64
2021/12/03 09:13:44;;;;;;;15.07;6.32;;;;;;;2.61;76.35;99278.63;5062130;28;20037;-64
2021/12/03 09:16:12;;;;;;;15.30;5.85;;;;;;;3.01;74.90;99274.63;5063036;28;20090;-62
2021/12/03 09:18:40;;;;;;;14.13;6.68;;;;;;;2.96;75.25;99277.19;5062262;28;20127;-64
2021/12/03 09:21:26;;;;;;;29.25;8.50;;;;;;;2.91;75.10;99268.97;5063017;28;20037;-62
2021/12/03 09:26:17;;;;;;;15.43;6.55;;;;;;;2.78;75.69;99261.88;5062410;28;20205;-63
2021/12/03 09:28:45;;;;;;;29.73;8.48;;;;;;;2.71;75.95;99253.03;5062047;28;20040;-64
2021/12/03 09:31:12;;;;;;;17.55;7.95;;;;;;;2.62;76.38;99247.16;5061922;28;20036;-63
2021/12/03 09:33:40;;;;;;;17.40;6.60;;;;;;;2.56;76.74;99248.88;5062248;28;20036;-63
2021/12/03 09:36:08;;;;;;;24.70;9.40;;;;;;;2.91;75.56;99242.03;5061034;28;20029;-63
2021/12/03 09:38:34;;;;;;;20.65;7.53;;;;;;;2.62;75.78;99236.38;5062125;28;20471;-65
2021/12/03 09:41:17;;;;;;;17.73;6.95;;;;;;;2.85;76.34;99232.19;5061544;28;20032;-64
2021/12/03 09:43:45;;;;;;;16.25;5.97;;;;;;;2.65;75.99;99235.91;5061965;28;20074;-63
2021/12/03 09:51:28;;;;;;;18.55;7.43;;;;;;;2.65;75.55;99242.13;5062613;28;20502;-64
2021/12/03 09:56:20;;;;;;;14.70;4.82;;;;;;;2.80;74.91;99224.78;5062356;28;20039;-64
2021/12/03 09:59:39;;;;;;;17.20;5.93;;;;;;;2.91;75.29;99221.31;5061424;28;20474;-65
2021/12/03 10:01:44;;;;;;;12.63;5.25;;;;;;;2.88;74.26;99212.88;5059656;28;20071;-64
2021/12/03 10:15:38;;;;;;;23.05;6.00;;;;;;;2.68;73.95;99212.06;5060323;28;20407;-64
2021/12/03 10:41:27;;;;;;;18.42;5.30;;;;;;;2.90;73.28;99211.59;5060260;28;20064;-64
2021/12/03 10:48:56;;;;;;;22.30;4.80;;;;;;;3.20;72.75;99187.56;5060063;28;20024;-63
2021/12/03 10:51:49;;;;;;;17.70;5.43;;;;;;;3.08;73.65;99180.28;5060921;28;20058;-64
2021/12/03 10:54:40;;;;;;;14.50;6.38;;;;;;;3.14;72.91;99184.75;5041755;28;20032;-65
2021/12/03 11:00:41;;;;;;;18.60;5.75;;;;;;;3.02;73.19;99170.41;5060883;28;20029;-65
2021/12/03 11:55:44;;;;;;;9.65;3.28;;;;;;;3.26;71.29;99085.09;5058861;28;20033;-63
2021/12/03 11:58:17;;;;;;;10.77;5.25;;;;;;;3.22;71.92;99083.06;5058566;28;20071;-63
2021/12/03 13:01:10;;;;;;;14.48;3.88;;;;;;;3.49;68.48;98967.56;5062003;28;20774;-62
2021/12/03 13:39:21;;;;;;;8.25;3.03;;;;;;;3.74;68.46;98947.56;5061001;28;20046;-63
2021/12/03 14:12:29;;;;;;;7.32;4.05;;;;;;;3.57;68.91;98896.28;5060157;28;20038;-65
2021/12/03 14:34:43;;;;;;;7.40;3.80;;;;;;;3.23;69.33;98855.72;5060588;28;20039;-62
2021/12/03 14:39:37;;;;;;;15.27;3.22;;;;;;;3.52;69.04;98850.34;5061131;28;20305;-63
2021/12/03 14:45:13;;;;;;;9.63;3.65;;;;;;;3.72;68.90;98881.47;5037503;28;20048;-63
2021/12/03 14:48:05;;;;;;;11.30;3.50;;;;;;;3.62;68.37;98872.09;5059487;28;20036;-62
2021/12/03 14:55:51;;;;;;;10.00;4.93;;;;;;;3.49;68.89;98875.09;5059468;28;20688;-62
2021/12/03 14:59:02;;;;;;;9.63;3.17;;;;;;;3.52;69.15;98863.81;5059831;28;20025;-63
2021/12/03 15:01:22;;;;;;;9.35;4.32;;;;;;;3.38;69.83;98853.31;5051407;28;21033;-62
2021/12/03 15:06:36;;;;;;;7.88;3.72;;;;;;;3.48;68.60;98866.19;5059883;28;20043;-62
2021/12/03 15:09:50;;;;;;;6.03;2.75;;;;;;;3.40;68.98;98855.78;5059991;28;20033;-63
2021/12/03 16:04:46;;;;;;;7.15;3.90;;;;;;;2.57;79.61;98833.34;5059448;28;20047;-63
2021/12/03 16:18:33;;;;;;;9.45;3.85;;;;;;;2.21;82.04;98818.03;5061944;28;20045;-63
2021/12/03 16:26:20;;;;;;;16.52;4.57;;;;;;;2.38;82.71;98798.47;5062846;28;20033;-63
2021/12/03 16:48:08;;;;;;;11.07;6.15;;;;;;;2.32;83.63;98780.56;5061703;28;20657;-63
2021/12/03 16:53:22;;;;;;;11.07;4.47;;;;;;;2.41;83.09;98776.50;5061042;28;20032;-64
2021/12/03 16:55:58;;;;;;;8.20;3.95;;;;;;;2.41;83.08;98778.34;5060682;28;20040;-63
2021/12/03 16:58:23;;;;;;;13.57;5.40;;;;;;;2.31;83.03;98781.63;5060928;28;20519;-62
2021/12/03 17:01:04;;;;;;;11.50;6.30;;;;;;;2.27;83.83;98780.47;5061110;28;20109;-64
2021/12/03 17:03:38;;;;;;;11.73;4.93;;;;;;;2.25;83.91;98774.50;5061573;28;20047;-63
2021/12/03 17:07:21;;;;;;;12.38;4.72;;;;;;;2.30;83.53;98777.28;5061370;28;20556;-64
2021/12/03 17:11:47;;;;;;;13.88;5.35;;;;;;;2.54;82.76;98782.69;5062053;28;20121;-64
2021/12/03 17:14:44;;;;;;;11.88;5.10;;;;;;;2.70;82.20;98780.31;5061495;28;20036;-63
2021/12/03 17:17:56;;;;;;;11.00;4.88;;;;;;;2.52;82.15;98780.22;5061103;28;20545;-64
2021/12/03 17:54:23;;;;;;;24.10;10.45;;;;;;;2.54;82.61;98750.38;5061724;28;20024;-63
2021/12/03 17:56:51;;;;;;;12.93;6.75;;;;;;;2.37;82.86;98750.28;5061105;28;20114;-63
2021/12/03 17:59:22;;;;;;;14.18;8.43;;;;;;;2.48;82.33;98741.41;5060344;28;20040;-63
2021/12/03 18:01:56;;;;;;;10.98;5.78;;;;;;;2.25;82.92;98742.22;5061102;28;20028;-64
2021/12/03 18:09:48;;;;;;;10.77;6.13;;;;;;;2.49;82.89;98736.81;5060850;28;20067;-63
2021/12/03 18:12:51;;;;;;;8.98;5.40;;;;;;;2.45;83.26;98741.84;5044723;28;20198;-62
2021/12/03 18:55:51;;;;;;;12.65;7.05;;;;;;;2.24;83.88;98646.44;5060789;28;20454;-64
2021/12/03 18:58:18;;;;;;;12.50;7.13;;;;;;;2.35;83.61;98656.34;5060284;28;20041;-64
2021/12/03 19:00:45;;;;;;;10.38;6.45;;;;;;;2.36;82.77;98663.38;5059685;28;20640;-64